Ευχαριστούμε που συμβάλλετε στη διατήρηση της σελίδας μας.

Thank you for your donations, it really helps to maintain the page.

Meteo Stats And More

Στατιστικά Καιρού & Άλλα..






Δείκτης Πυρκαγιάς (FWI)

Κάμερα Ρομανού more information Romanos Cam


Ιστιοπλοικός Όμιλος Πάτρας more information Istioploikos Omilos Patras


Ραντάρ Κεραυνών more information blitzortung!


Ραντάρ Βροχής more information rain snow radar


Επισκεφθείτε άλλες ιστοσελίδες καιρού μας:

Meteopatras.Eu in
Euweather NetworkMeteopatras.Eu in Euweather Network

Weather CloudWeather Cloud

PWS WeatherPWS Weather

Awekas NetWeather data from station Patra-Ketx

WunderGroundWeather data from station Patra-Ketx




Ιδιοκτησία και Επίβλεψη : Μουλάς Αντρέας

 Πάτρα, Ελλάδα - Γ.Πλάτος : 38°14'21" Β - Γ.Μήκος : 21°45'5" Α - Υψόμετρο : 56μ

Select another period ( hide this area )

Μονάδες Περίοδο Custom range Directly to
Μετρικό Αγγλικό Και τα δύο
Καθημερινά Εβδομαδιαία Μηνιαία Ετήσια
use both date-selectors for a custom range
previous Ημέρα
With this date

WeatherUnderground graphs for this period ( click here )



Warning: Division by zero in /mounted-storage/home23/sub048/sc87713-GAHN/meteopatras.eu/weather/wu/WU-History4.php on line 835
Καθημερινά Περίληψη για Τετάρτη 24 Οκτόμβριος 2018
Ώρα Temp. ( °C ) Dew pt. ( °C ) Άνεμος ( km/h ) απο Ριπή ( km/h ) Πίεση ( hPa ) Humid.( % ) Rainrate ( cm ) Solar ( W/m2 )
Υψηλή20,6 13,1 7,6 ΑΝΑ ( 43/51 ) 11,1 1010,4 76 - 0
Μέση Τιμή18,6 12,7 1,3 Άπνοια #33/67 2,4 1009,0 69 - 0 #0/67
Χαμηλή16,7 11,4 -   0,0 1008,0 56 -  
Καθημερινά Tabular details for Τετάρτη 24 Οκτόμβριος 2018
Ώρα Temp. ( °C ) Dew pt. ( °C ) Άνεμος ( km/h ) απο Ριπή ( km/h ) Πίεση ( hPa ) Humid.( % ) Rainrate ( cm ) Solar ( W/m2 )
00:04 20,6 11,4 1,8 ΑΝΑ 4,8 1010,4 56 - -
00:09 20,6 11,5 5,3 ΑΝΑ 9,3 1010,4 56 - -
00:14 20,5 11,9 3,5 ΑΝΑ 5,6 1010,4 58 - -
00:19 20,4 12,1 1,8 ΑΝΑ 5,6 1010,4 59 - -
00:24 20,2 12,7 7,6 ΑΝΑ 11,1 1010,4 62 - -
00:29 19,9 12,4 2,6 ΑΝΑ 5,6 1010,4 62 - -
00:34 19,9 12,6 0,6 ΑΝΑ 1,9 1010,0 63 - -
00:39 19,8 12,6 1,8 ΑΝΑ 3,7 1010,0 63 - -
00:44 19,7 12,7 1,8 ΑΝΑ 3,7 1010,0 64 - -
00:49 19,7 12,7   Άπνοια   1010,0 64 - -
00:54 19,6 12,6 3,4 ΑΝΑ 5,6 1009,7 64 - -
00:59 19,6 12,6 2,6 ΑΝΑ 3,7 1009,7 64 - -
01:04 19,6 12,8   Άπνοια   1009,7 65 - -
01:09 19,5 12,7   Άπνοια   1009,7 65 - -
01:14 19,4 12,9 2,7 ΑΝΑ 3,7 1009,7 66 - -
01:19 19,3 12,6 1,6 ΑΝΑ 3,7 1009,7 65 - -
01:24 19,3 12,8   Άπνοια   1009,7 66 - -
01:29 19,3 12,6   Άπνοια   1009,4 65 - -
01:34 19,3 12,6   Άπνοια   1009,4 65 - -
01:39 19,2 12,7   Άπνοια   1009,4 66 - -
01:44 19,2 12,7   Άπνοια   1009,4 66 - -
01:49 19,2 12,7   Άπνοια   1009,4 66 - -
01:54 19,1 12,6   Άπνοια   1009,4 66 - -
01:59 19,1 12,8   Άπνοια   1009,4 67 - -
02:04 19,1 12,8   Άπνοια   1009,4 67 - -
02:09 19,0 12,9   Άπνοια   1009,4 68 - -
02:14 18,9 12,9   Άπνοια   1009,4 68 - -
02:19 18,9 12,8   Άπνοια   1009,4 68 - -
02:24 18,9 12,8   Άπνοια   1009,4 68 - -
02:29 18,9 12,8   Άπνοια   1009,4 68 - -
02:34 18,8 12,9   Άπνοια   1009,4 69 - -
02:39 18,7 12,9   Άπνοια   1009,4 69 - -
02:44 18,6 13,0 3,5 ΑΝΑ 5,6 1009,4 70 - -
02:49 18,4 13,1 2,9 ΑΝΑ 5,6 1009,4 71 - -
02:54 18,4 13,1 0,5 ΑΝΑ 1,9 1009,4 71 - -
02:59 18,4 13,1 0,8 ΑΝΑ 3,7 1009,4 71 - -
03:04 18,3 13,0 2,3 ΑΝΑ 5,6 1009,0 71 - -
03:09 18,3 13,0 2,7 ΑΝΑ 5,6 1009,0 71 - -
03:14 18,3 12,9 3,1 ΑΝΑ 5,6 1009,0 71 - -
03:19 18,2 12,8   Άπνοια   1009,0 71 - -
03:24 18,1 12,8   Άπνοια   1009,0 71 - -
03:29 18,1 12,7 1,6 ΑΝΑ 3,7 1009,0 71 - -
03:34 17,9 12,8 3,1 ΑΝΑ 5,6 1008,7 72 - -
03:39 17,8 12,9   Άπνοια   1008,7 73 - -
03:44 17,8 12,9   Άπνοια   1008,7 73 - -
03:49 17,8 12,9 1,9 ΑΝΑ 3,7 1008,7 73 - -
03:54 17,6 12,7 1,1 ΑΝΑ 3,7 1008,7 73 - -
03:59 17,4 12,8 0,2 ΑΝΑ 3,2 1008,7 74 - -
04:04 17,3 12,7 3,5 ΑΝΑ 5,6 1008,7 74 - -
04:09 17,4 12,7 4,2 ΑΝΑ 5,6 1008,7 74 - -
04:14 17,4 12,6 4,2 Ανατολή 5,6 1008,4 73 - -
04:19 17,5 12,4 2,6 Ανατολή 3,7 1008,4 72 - -
04:24 17,7 12,6 1,9 Ανατολή 3,7 1008,4 72 - -
04:29 17,8 12,7   Άπνοια   1008,4 72 - -
04:34 17,8 12,7   Άπνοια   1008,4 72 - -
04:39 17,8 12,7   Άπνοια   1008,4 72 - -
04:44 17,7 12,8   Άπνοια   1008,0 73 - -
04:49 17,6 12,7   Άπνοια   1008,0 73 - -
04:54 17,5 12,6   Άπνοια   1008,0 73 - -
04:59 17,4 12,8 2,1 Ανατολή 5,6 1008,0 74 - -
05:04 17,5 12,6 0,5 Ανατολή 1,9 1008,0 73 - -
05:09 17,5 12,6   Άπνοια   1008,0 73 - -
05:14 17,4 12,5   Άπνοια   1008,0 73 - -
05:19 17,2 12,5 1,9 Ανατολή 5,6 1008,0 74 - -
05:24 17,0 12,6 1,1 Ανατολή 3,7 1008,0 75 - -
05:29 16,8 12,6   Άπνοια 1,9 1008,0 76 - -
05:34 16,7 12,4   Άπνοια   1008,0 76 - -
Καθημερινά Περίληψη για Τετάρτη 24 Οκτόμβριος 2018
Ώρα Temp. ( °C ) Dew pt. ( °C ) Άνεμος ( km/h ) απο Ριπή ( km/h ) Πίεση ( hPa ) Humid.( % ) Rainrate ( cm ) Solar ( W/m2 )
Υψηλή20,6 13,1 7,6 ΑΝΑ ( 43/51 ) 11,1 1010,4 76 - 0
Μέση Τιμή18,6 12,7 1,3 Άπνοια #33/67 2,4 1009,0 69 - 0 #0/67
Χαμηλή16,7 11,4 -   0,0 1008,0 56 -  
Καθημερινά Tabular details for Τετάρτη 24 Οκτόμβριος 2018
Ώρα Temp. ( °C ) Dew pt. ( °C ) Άνεμος ( km/h ) απο Ριπή ( km/h ) Πίεση ( hPa ) Humid.( % ) Rainrate ( cm ) Solar ( W/m2 )
00:04 20,6 11,4 1,8 ΑΝΑ 4,8 1010,4 56 - -
00:09 20,6 11,5 5,3 ΑΝΑ 9,3 1010,4 56 - -
00:14 20,5 11,9 3,5 ΑΝΑ 5,6 1010,4 58 - -
00:19 20,4 12,1 1,8 ΑΝΑ 5,6 1010,4 59 - -
00:24 20,2 12,7 7,6 ΑΝΑ 11,1 1010,4 62 - -
00:29 19,9 12,4 2,6 ΑΝΑ 5,6 1010,4 62 - -
00:34 19,9 12,6 0,6 ΑΝΑ 1,9 1010,0 63 - -
00:39 19,8 12,6 1,8 ΑΝΑ 3,7 1010,0 63 - -
00:44 19,7 12,7 1,8 ΑΝΑ 3,7 1010,0 64 - -
00:49 19,7 12,7   Άπνοια   1010,0 64 - -
00:54 19,6 12,6 3,4 ΑΝΑ 5,6 1009,7 64 - -
00:59 19,6 12,6 2,6 ΑΝΑ 3,7 1009,7 64 - -
01:04 19,6 12,8   Άπνοια   1009,7 65 - -
01:09 19,5 12,7   Άπνοια   1009,7 65 - -
01:14 19,4 12,9 2,7 ΑΝΑ 3,7 1009,7 66 - -
01:19 19,3 12,6 1,6 ΑΝΑ 3,7 1009,7 65 - -
01:24 19,3 12,8   Άπνοια   1009,7 66 - -
01:29 19,3 12,6   Άπνοια   1009,4 65 - -
01:34 19,3 12,6   Άπνοια   1009,4 65 - -
01:39 19,2 12,7   Άπνοια   1009,4 66 - -
01:44 19,2 12,7   Άπνοια   1009,4 66 - -
01:49 19,2 12,7   Άπνοια   1009,4 66 - -
01:54 19,1 12,6   Άπνοια   1009,4 66 - -
01:59 19,1 12,8   Άπνοια   1009,4 67 - -
02:04 19,1 12,8   Άπνοια   1009,4 67 - -
02:09 19,0 12,9   Άπνοια   1009,4 68 - -
02:14 18,9 12,9   Άπνοια   1009,4 68 - -
02:19 18,9 12,8   Άπνοια   1009,4 68 - -
02:24 18,9 12,8   Άπνοια   1009,4 68 - -
02:29 18,9 12,8   Άπνοια   1009,4 68 - -
02:34 18,8 12,9   Άπνοια   1009,4 69 - -
02:39 18,7 12,9   Άπνοια   1009,4 69 - -
02:44 18,6 13,0 3,5 ΑΝΑ 5,6 1009,4 70 - -
02:49 18,4 13,1 2,9 ΑΝΑ 5,6 1009,4 71 - -
02:54 18,4 13,1 0,5 ΑΝΑ 1,9 1009,4 71 - -
02:59 18,4 13,1 0,8 ΑΝΑ 3,7 1009,4 71 - -
03:04 18,3 13,0 2,3 ΑΝΑ 5,6 1009,0 71 - -
03:09 18,3 13,0 2,7 ΑΝΑ 5,6 1009,0 71 - -
03:14 18,3 12,9 3,1 ΑΝΑ 5,6 1009,0 71 - -
03:19 18,2 12,8   Άπνοια   1009,0 71 - -
03:24 18,1 12,8   Άπνοια   1009,0 71 - -
03:29 18,1 12,7 1,6 ΑΝΑ 3,7 1009,0 71 - -
03:34 17,9 12,8 3,1 ΑΝΑ 5,6 1008,7 72 - -
03:39 17,8 12,9   Άπνοια   1008,7 73 - -
03:44 17,8 12,9   Άπνοια   1008,7 73 - -
03:49 17,8 12,9 1,9 ΑΝΑ 3,7 1008,7 73 - -
03:54 17,6 12,7 1,1 ΑΝΑ 3,7 1008,7 73 - -
03:59 17,4 12,8 0,2 ΑΝΑ 3,2 1008,7 74 - -
04:04 17,3 12,7 3,5 ΑΝΑ 5,6 1008,7 74 - -
04:09 17,4 12,7 4,2 ΑΝΑ 5,6 1008,7 74 - -
04:14 17,4 12,6 4,2 Ανατολή 5,6 1008,4 73 - -
04:19 17,5 12,4 2,6 Ανατολή 3,7 1008,4 72 - -
04:24 17,7 12,6 1,9 Ανατολή 3,7 1008,4 72 - -
04:29 17,8 12,7   Άπνοια   1008,4 72 - -
04:34 17,8 12,7   Άπνοια   1008,4 72 - -
04:39 17,8 12,7   Άπνοια   1008,4 72 - -
04:44 17,7 12,8   Άπνοια   1008,0 73 - -
04:49 17,6 12,7   Άπνοια   1008,0 73 - -
04:54 17,5 12,6   Άπνοια   1008,0 73 - -
04:59 17,4 12,8 2,1 Ανατολή 5,6 1008,0 74 - -
05:04 17,5 12,6 0,5 Ανατολή 1,9 1008,0 73 - -
05:09 17,5 12,6   Άπνοια   1008,0 73 - -
05:14 17,4 12,5   Άπνοια   1008,0 73 - -
05:19 17,2 12,5 1,9 Ανατολή 5,6 1008,0 74 - -
05:24 17,0 12,6 1,1 Ανατολή 3,7 1008,0 75 - -
05:29 16,8 12,6   Άπνοια 1,9 1008,0 76 - -
05:34 16,7 12,4   Άπνοια   1008,0 76 - -

Download your copy of this data-set  here

Our weather-data as stored at Weather Underground. Script developed by Jim McMurry. Προσαρμοσμένος για το πρότυπο του Leuven-Template.eu

Μπορείτε να βρείτε πληροφορίες καιρού μας και σε:

European Weather Network

WeatherCloud

Weather Underground

Δύκτιο Σταθμών Ελλάδας

AWEKAS

HAMweather, WeatherForYou, PWS Weather

MeteoPatras.Eu